Northwest Arkansas Regional Airport
KXNA : now visible

Airfield :











YOU CAN JOIN US ON...

 
LOGIN :

Register | Disclaimer

   EN    FR    IT 

 









Legend :    VFR   Marginal VFR   IFR   Intensive IFR   Very Intensive IFR
Visi :
Ceiling :
>= 8 km
>= 3000ft
5 to 8 km
1000 to 3000 ft
1500m to 5 km
500 to 1000 ft
800 to 1500m
200 to 500 ft
< 800m
< 200 ft
Symbols :   Thunderstorms  Fog  Heavy snow  Heavy precipitations  Wind > 20 kt






- Airport Elevation : 1287 ft


KXNA - Northwest Arkansas Regional

CURRENT METAR :
  • 090053Z 18008KT 10SM OVC018 09/07 A2976 RMK AO2 SLP079 T00940067

EXPIRED METARs :
  • 082335Z 20005KT 10SM BKN018 BKN023 09/06 A2977 RMK AO2 T00940061
  • 082253Z 17011KT 10SM CLR 09/06 A2976 RMK AO2 SLP078 T00940061

TAF KXNA
Valid from the 09 at 00:00 until the 10 at 00:00 UTC


082355Z 0900/0924 17006KT P6SM SCT018 OVC150
TEMPO 0900/0904 BKN020
FM090400 19006KT P6SM OVC015
FM091800 33012KT P6SM BKN025



MET'MAP, your aeronautical weather chart ! - Copyright ORBIFLY December 2007 - Disclaimer

ORBIFLY MET'MAP TEAM :

Programming & Development : Alexandra Zaïnal
Concept & original design : Baudouin d'Aumeries
Assistance for programming : Marc-Olivier Méhu
Technical & hardware support : Manuel Goepfert

Contact : metmap@orbifly.com




SOURCES & CREDITS :

   NOAA       Earth
Advisory